Terminal Aerodrome Forecast
Issued by NWS

Home | Current Version | Previous Version | Graphics & Text | Print | Product List | Glossary On
Versions: 1 2 3 4 5 6 7 8 9 10 11 12 13 14 15 16 17 18 19 20 21 22 23 24 25 26 27 28 29 30 31 32 33 34 35 36 37
492
FTUS43 KABR 240818 AAA
TAFATY
TAF AMD
KATY 240818Z 2408/2506 15017G23KT P6SM SKC
     FM241500 15018G28KT P6SM SCT030
     FM242100 18011KT P6SM SHRA VCTS BKN060CB
     FM250100 19010KT P6SM BKN150=

USA.gov is the U.S. government's official web portal to all federal, state and local government web resources and services.